sensor_id;sensor_type;location;lat;lon;timestamp;temperature;humidity
21267;DHT22;10791;53.108;18.326;2023-04-03T00:03:24;0.90;99.90
21267;DHT22;10791;53.108;18.326;2023-04-03T00:08:28;0.90;99.90
21267;DHT22;10791;53.108;18.326;2023-04-03T00:13:33;0.90;99.90
21267;DHT22;10791;53.108;18.326;2023-04-03T00:18:38;0.90;99.90
21267;DHT22;10791;53.108;18.326;2023-04-03T00:23:42;0.90;99.90
21267;DHT22;10791;53.108;18.326;2023-04-03T00:28:45;0.90;99.90
21267;DHT22;10791;53.108;18.326;2023-04-03T00:33:48;0.90;99.90
21267;DHT22;10791;53.108;18.326;2023-04-03T00:38:52;0.90;99.90
21267;DHT22;10791;53.108;18.326;2023-04-03T00:43:56;0.80;99.90
21267;DHT22;10791;53.108;18.326;2023-04-03T00:48:59;0.90;99.90
21267;DHT22;10791;53.108;18.326;2023-04-03T00:54:05;0.90;99.90
21267;DHT22;10791;53.108;18.326;2023-04-03T00:59:16;0.90;99.90
21267;DHT22;10791;53.108;18.326;2023-04-03T01:04:37;0.80;99.90
21267;DHT22;10791;53.108;18.326;2023-04-03T01:09:42;0.80;99.90
21267;DHT22;10791;53.108;18.326;2023-04-03T01:14:53;0.80;99.90
21267;DHT22;10791;53.108;18.326;2023-04-03T01:30:48;0.70;99.90
21267;DHT22;10791;53.108;18.326;2023-04-03T01:35:53;0.70;99.90
21267;DHT22;10791;53.108;18.326;2023-04-03T01:40:56;0.60;99.90
21267;DHT22;10791;53.108;18.326;2023-04-03T01:46:00;0.60;99.90
21267;DHT22;10791;53.108;18.326;2023-04-03T01:51:03;0.60;99.90
21267;DHT22;10791;53.108;18.326;2023-04-03T01:56:07;0.50;99.90
21267;DHT22;10791;53.108;18.326;2023-04-03T02:01:10;0.50;99.90
21267;DHT22;10791;53.108;18.326;2023-04-03T02:06:14;0.40;99.90
21267;DHT22;10791;53.108;18.326;2023-04-03T02:11:17;0.50;99.90
21267;DHT22;10791;53.108;18.326;2023-04-03T02:16:21;0.50;99.90
21267;DHT22;10791;53.108;18.326;2023-04-03T02:21:24;0.50;99.90
21267;DHT22;10791;53.108;18.326;2023-04-03T02:26:28;0.50;99.90
21267;DHT22;10791;53.108;18.326;2023-04-03T02:31:31;0.50;99.90
21267;DHT22;10791;53.108;18.326;2023-04-03T02:36:35;0.50;99.90
21267;DHT22;10791;53.108;18.326;2023-04-03T02:41:38;0.60;99.90
21267;DHT22;10791;53.108;18.326;2023-04-03T02:46:42;0.40;99.90
21267;DHT22;10791;53.108;18.326;2023-04-03T02:51:45;0.30;99.90
21267;DHT22;10791;53.108;18.326;2023-04-03T02:56:49;0.20;99.90
21267;DHT22;10791;53.108;18.326;2023-04-03T03:01:53;0.20;99.90
21267;DHT22;10791;53.108;18.326;2023-04-03T03:06:56;0.10;99.90
21267;DHT22;10791;53.108;18.326;2023-04-03T03:12:00;0.10;99.90
21267;DHT22;10791;53.108;18.326;2023-04-03T03:17:03;0.10;99.90
21267;DHT22;10791;53.108;18.326;2023-04-03T03:22:06;0.00;99.90
21267;DHT22;10791;53.108;18.326;2023-04-03T03:27:10;0.00;99.90
21267;DHT22;10791;53.108;18.326;2023-04-03T03:32:13;0.00;99.90
21267;DHT22;10791;53.108;18.326;2023-04-03T03:37:16;0.00;99.90
21267;DHT22;10791;53.108;18.326;2023-04-03T03:42:20;0.00;99.90
21267;DHT22;10791;53.108;18.326;2023-04-03T03:47:23;-0.10;99.90
21267;DHT22;10791;53.108;18.326;2023-04-03T03:52:27;-0.10;99.90
21267;DHT22;10791;53.108;18.326;2023-04-03T03:57:30;-0.20;99.90
21267;DHT22;10791;53.108;18.326;2023-04-03T04:02:33;-0.10;99.90
21267;DHT22;10791;53.108;18.326;2023-04-03T04:07:37;-0.10;99.90
21267;DHT22;10791;53.108;18.326;2023-04-03T04:12:43;-0.10;99.90
21267;DHT22;10791;53.108;18.326;2023-04-03T04:17:46;-0.10;99.90
21267;DHT22;10791;53.108;18.326;2023-04-03T04:22:50;-0.10;99.90
21267;DHT22;10791;53.108;18.326;2023-04-03T04:27:54;-0.10;99.90
21267;DHT22;10791;53.108;18.326;2023-04-03T04:32:57;-0.20;99.90
21267;DHT22;10791;53.108;18.326;2023-04-03T04:38:00;-0.10;99.90
21267;DHT22;10791;53.108;18.326;2023-04-03T04:43:05;-0.10;99.90
21267;DHT22;10791;53.108;18.326;2023-04-03T04:48:08;-0.10;99.90
21267;DHT22;10791;53.108;18.326;2023-04-03T04:53:11;-0.10;99.90
21267;DHT22;10791;53.108;18.326;2023-04-03T04:58:15;-0.10;99.90
21267;DHT22;10791;53.108;18.326;2023-04-03T05:03:18;0.00;99.90
21267;DHT22;10791;53.108;18.326;2023-04-03T05:08:22;0.00;99.90
21267;DHT22;10791;53.108;18.326;2023-04-03T05:13:25;0.00;99.90
21267;DHT22;10791;53.108;18.326;2023-04-03T05:18:29;0.10;99.90
21267;DHT22;10791;53.108;18.326;2023-04-03T05:23:32;0.20;99.90
21267;DHT22;10791;53.108;18.326;2023-04-03T05:28:36;0.30;99.90
21267;DHT22;10791;53.108;18.326;2023-04-03T05:33:39;0.40;99.90
21267;DHT22;10791;53.108;18.326;2023-04-03T05:38:42;0.70;99.90
21267;DHT22;10791;53.108;18.326;2023-04-03T05:43:46;0.80;99.90
21267;DHT22;10791;53.108;18.326;2023-04-03T05:48:49;0.80;99.90
21267;DHT22;10791;53.108;18.326;2023-04-03T05:53:59;0.80;99.90
21267;DHT22;10791;53.108;18.326;2023-04-03T05:59:04;0.90;99.90
21267;DHT22;10791;53.108;18.326;2023-04-03T06:04:07;1.10;99.90
21267;DHT22;10791;53.108;18.326;2023-04-03T06:09:15;1.20;99.90
21267;DHT22;10791;53.108;18.326;2023-04-03T06:14:19;1.30;99.90
21267;DHT22;10791;53.108;18.326;2023-04-03T06:19:23;1.30;99.90
21267;DHT22;10791;53.108;18.326;2023-04-03T06:24:26;1.40;99.90
21267;DHT22;10791;53.108;18.326;2023-04-03T06:29:30;1.50;99.90
21267;DHT22;10791;53.108;18.326;2023-04-03T06:34:33;1.60;99.90
21267;DHT22;10791;53.108;18.326;2023-04-03T06:39:36;1.70;99.90
21267;DHT22;10791;53.108;18.326;2023-04-03T06:44:40;1.70;99.90
21267;DHT22;10791;53.108;18.326;2023-04-03T06:49:49;1.90;99.90
21267;DHT22;10791;53.108;18.326;2023-04-03T06:54:56;2.10;99.90
21267;DHT22;10791;53.108;18.326;2023-04-03T07:00:04;2.10;99.90
21267;DHT22;10791;53.108;18.326;2023-04-03T07:05:08;2.20;99.90
21267;DHT22;10791;53.108;18.326;2023-04-03T07:10:12;2.30;99.90
21267;DHT22;10791;53.108;18.326;2023-04-03T07:15:18;2.50;99.90
21267;DHT22;10791;53.108;18.326;2023-04-03T07:20:22;2.70;99.90
21267;DHT22;10791;53.108;18.326;2023-04-03T07:25:25;2.60;99.90
21267;DHT22;10791;53.108;18.326;2023-04-03T07:30:29;2.60;99.90
21267;DHT22;10791;53.108;18.326;2023-04-03T07:35:32;2.50;99.90
21267;DHT22;10791;53.108;18.326;2023-04-03T07:40:37;2.60;99.90
21267;DHT22;10791;53.108;18.326;2023-04-03T07:45:41;2.70;99.90
21267;DHT22;10791;53.108;18.326;2023-04-03T07:50:44;2.70;99.90
21267;DHT22;10791;53.108;18.326;2023-04-03T07:55:48;2.80;99.90
21267;DHT22;10791;53.108;18.326;2023-04-03T08:00:52;2.90;99.90
21267;DHT22;10791;53.108;18.326;2023-04-03T08:06:02;3.00;99.10
21267;DHT22;10791;53.108;18.326;2023-04-03T08:11:07;3.10;98.80
21267;DHT22;10791;53.108;18.326;2023-04-03T08:16:20;3.20;95.80
21267;DHT22;10791;53.108;18.326;2023-04-03T08:21:28;3.30;95.70
21267;DHT22;10791;53.108;18.326;2023-04-03T08:26:32;3.40;95.80
21267;DHT22;10791;53.108;18.326;2023-04-03T08:31:35;3.50;94.70
21267;DHT22;10791;53.108;18.326;2023-04-03T08:36:38;3.70;95.70
21267;DHT22;10791;53.108;18.326;2023-04-03T08:41:44;3.80;93.80
21267;DHT22;10791;53.108;18.326;2023-04-03T08:52:37;4.10;92.80
21267;DHT22;10791;53.108;18.326;2023-04-03T08:57:44;4.10;92.60
21267;DHT22;10791;53.108;18.326;2023-04-03T09:02:51;4.10;93.10
21267;DHT22;10791;53.108;18.326;2023-04-03T09:08:09;4.20;92.10
21267;DHT22;10791;53.108;18.326;2023-04-03T09:13:35;4.20;92.20
21267;DHT22;10791;53.108;18.326;2023-04-03T09:18:45;4.40;91.90
21267;DHT22;10791;53.108;18.326;2023-04-03T09:23:53;4.50;91.80
21267;DHT22;10791;53.108;18.326;2023-04-03T09:29:06;4.80;92.20
21267;DHT22;10791;53.108;18.326;2023-04-03T09:34:36;4.90;93.60
21267;DHT22;10791;53.108;18.326;2023-04-03T09:39:53;4.70;92.20
21267;DHT22;10791;53.108;18.326;2023-04-03T09:45:03;4.40;91.60
21267;DHT22;10791;53.108;18.326;2023-04-03T09:55:19;5.10;91.60
21267;DHT22;10791;53.108;18.326;2023-04-03T10:00:35;5.20;88.80
21267;DHT22;10791;53.108;18.326;2023-04-03T10:05:41;5.40;90.30
21267;DHT22;10791;53.108;18.326;2023-04-03T10:10:47;5.40;89.00
21267;DHT22;10791;53.108;18.326;2023-04-03T10:15:56;5.70;91.20
21267;DHT22;10791;53.108;18.326;2023-04-03T10:21:16;5.60;86.20
21267;DHT22;10791;53.108;18.326;2023-04-03T10:26:50;5.50;89.10
21267;DHT22;10791;53.108;18.326;2023-04-03T10:37:30;5.60;88.80
21267;DHT22;10791;53.108;18.326;2023-04-03T10:42:50;5.50;88.50
21267;DHT22;10791;53.108;18.326;2023-04-03T10:48:21;5.40;85.70
21267;DHT22;10791;53.108;18.326;2023-04-03T10:53:37;5.00;83.30
21267;DHT22;10791;53.108;18.326;2023-04-03T10:58:50;5.00;85.00
21267;DHT22;10791;53.108;18.326;2023-04-03T11:03:59;5.40;83.00
21267;DHT22;10791;53.108;18.326;2023-04-03T11:14:29;5.40;83.40
21267;DHT22;10791;53.108;18.326;2023-04-03T11:30:26;5.60;81.20
21267;DHT22;10791;53.108;18.326;2023-04-03T11:35:32;5.40;82.80
21267;DHT22;10791;53.108;18.326;2023-04-03T11:40:37;5.90;87.80
21267;DHT22;10791;53.108;18.326;2023-04-03T11:45:57;6.10;79.80
21267;DHT22;10791;53.108;18.326;2023-04-03T12:01:49;6.10;82.60
21267;DHT22;10791;53.108;18.326;2023-04-03T12:07:00;6.60;83.10
21267;DHT22;10791;53.108;18.326;2023-04-03T12:12:29;7.00;79.90
21267;DHT22;10791;53.108;18.326;2023-04-03T12:17:33;6.20;81.30
21267;DHT22;10791;53.108;18.326;2023-04-03T12:22:37;5.70;80.10
21267;DHT22;10791;53.108;18.326;2023-04-03T12:27:42;5.70;82.90
21267;DHT22;10791;53.108;18.326;2023-04-03T12:33:17;5.60;80.30
21267;DHT22;10791;53.108;18.326;2023-04-03T12:54:37;5.70;80.00
21267;DHT22;10791;53.108;18.326;2023-04-03T12:59:43;5.30;79.30
21267;DHT22;10791;53.108;18.326;2023-04-03T13:04:52;6.00;84.80
21267;DHT22;10791;53.108;18.326;2023-04-03T13:09:58;6.00;77.10
21267;DHT22;10791;53.108;18.326;2023-04-03T13:15:17;6.10;81.80
21267;DHT22;10791;53.108;18.326;2023-04-03T13:20:29;6.30;78.40
21267;DHT22;10791;53.108;18.326;2023-04-03T13:25:37;6.20;76.70
21267;DHT22;10791;53.108;18.326;2023-04-03T13:30:57;5.50;77.90
21267;DHT22;10791;53.108;18.326;2023-04-03T13:36:29;5.80;80.70
21267;DHT22;10791;53.108;18.326;2023-04-03T13:41:38;5.50;82.10
21267;DHT22;10791;53.108;18.326;2023-04-03T13:46:43;5.20;81.80
21267;DHT22;10791;53.108;18.326;2023-04-03T13:51:50;5.00;83.70
21267;DHT22;10791;53.108;18.326;2023-04-03T13:57:14;5.50;83.10
21267;DHT22;10791;53.108;18.326;2023-04-03T14:02:19;5.60;83.10
21267;DHT22;10791;53.108;18.326;2023-04-03T14:07:24;5.20;87.30
21267;DHT22;10791;53.108;18.326;2023-04-03T14:12:33;4.80;86.80
21267;DHT22;10791;53.108;18.326;2023-04-03T14:17:37;4.90;88.40
21267;DHT22;10791;53.108;18.326;2023-04-03T14:22:40;5.40;85.00
21267;DHT22;10791;53.108;18.326;2023-04-03T14:27:47;6.40;84.10
21267;DHT22;10791;53.108;18.326;2023-04-03T14:32:52;6.40;78.50
21267;DHT22;10791;53.108;18.326;2023-04-03T14:37:55;6.00;80.00
21267;DHT22;10791;53.108;18.326;2023-04-03T14:42:59;6.00;77.60
21267;DHT22;10791;53.108;18.326;2023-04-03T14:48:03;5.50;79.80
21267;DHT22;10791;53.108;18.326;2023-04-03T14:53:07;5.80;80.90
21267;DHT22;10791;53.108;18.326;2023-04-03T14:58:15;7.00;77.90
21267;DHT22;10791;53.108;18.326;2023-04-03T15:03:20;6.60;76.90
21267;DHT22;10791;53.108;18.326;2023-04-03T15:08:27;6.50;74.20
21267;DHT22;10791;53.108;18.326;2023-04-03T15:13:34;7.10;70.30
21267;DHT22;10791;53.108;18.326;2023-04-03T15:18:38;7.00;70.00
21267;DHT22;10791;53.108;18.326;2023-04-03T15:23:41;7.30;71.10
21267;DHT22;10791;53.108;18.326;2023-04-03T15:28:47;7.50;70.00
21267;DHT22;10791;53.108;18.326;2023-04-03T15:33:50;6.50;73.80
21267;DHT22;10791;53.108;18.326;2023-04-03T15:38:53;5.20;78.00
21267;DHT22;10791;53.108;18.326;2023-04-03T15:43:57;4.60;77.30
21267;DHT22;10791;53.108;18.326;2023-04-03T15:49:01;4.30;76.20
21267;DHT22;10791;53.108;18.326;2023-04-03T15:54:05;5.50;74.30
21267;DHT22;10791;53.108;18.326;2023-04-03T15:59:08;5.80;71.50
21267;DHT22;10791;53.108;18.326;2023-04-03T16:04:11;6.20;71.30
21267;DHT22;10791;53.108;18.326;2023-04-03T16:09:17;7.00;69.50
21267;DHT22;10791;53.108;18.326;2023-04-03T16:14:20;6.70;70.60
21267;DHT22;10791;53.108;18.326;2023-04-03T16:19:25;6.60;74.10
21267;DHT22;10791;53.108;18.326;2023-04-03T16:24:29;6.50;77.20
21267;DHT22;10791;53.108;18.326;2023-04-03T16:29:32;5.50;75.10
21267;DHT22;10791;53.108;18.326;2023-04-03T16:34:36;4.40;80.80
21267;DHT22;10791;53.108;18.326;2023-04-03T16:39:45;3.90;84.80
21267;DHT22;10791;53.108;18.326;2023-04-03T16:44:51;3.70;86.60
21267;DHT22;10791;53.108;18.326;2023-04-03T16:49:56;4.10;87.90
21267;DHT22;10791;53.108;18.326;2023-04-03T16:55:01;3.90;87.80
21267;DHT22;10791;53.108;18.326;2023-04-03T17:00:07;3.60;89.80
21267;DHT22;10791;53.108;18.326;2023-04-03T17:05:11;3.40;90.30
21267;DHT22;10791;53.108;18.326;2023-04-03T17:10:15;3.40;91.40
21267;DHT22;10791;53.108;18.326;2023-04-03T17:15:19;3.30;91.30
21267;DHT22;10791;53.108;18.326;2023-04-03T17:20:23;3.20;91.80
21267;DHT22;10791;53.108;18.326;2023-04-03T17:25:31;3.00;91.20
21267;DHT22;10791;53.108;18.326;2023-04-03T17:30:36;2.90;91.60
21267;DHT22;10791;53.108;18.326;2023-04-03T17:35:41;2.70;92.70
21267;DHT22;10791;53.108;18.326;2023-04-03T17:40:45;2.50;94.40
21267;DHT22;10791;53.108;18.326;2023-04-03T17:45:50;2.40;94.10
21267;DHT22;10791;53.108;18.326;2023-04-03T17:50:54;2.30;94.50
21267;DHT22;10791;53.108;18.326;2023-04-03T17:56:33;2.30;94.90
21267;DHT22;10791;53.108;18.326;2023-04-03T18:01:38;2.10;95.20
21267;DHT22;10791;53.108;18.326;2023-04-03T18:06:47;2.10;94.70
21267;DHT22;10791;53.108;18.326;2023-04-03T18:11:53;2.10;94.30
21267;DHT22;10791;53.108;18.326;2023-04-03T18:16:59;2.10;94.10
21267;DHT22;10791;53.108;18.326;2023-04-03T18:22:13;2.00;94.30
21267;DHT22;10791;53.108;18.326;2023-04-03T18:27:21;1.90;94.50
21267;DHT22;10791;53.108;18.326;2023-04-03T18:32:30;1.90;94.60
21267;DHT22;10791;53.108;18.326;2023-04-03T18:37:35;1.80;94.90
21267;DHT22;10791;53.108;18.326;2023-04-03T18:42:40;1.90;94.40
21267;DHT22;10791;53.108;18.326;2023-04-03T18:47:45;2.00;93.80
21267;DHT22;10791;53.108;18.326;2023-04-03T18:52:51;2.00;94.50
21267;DHT22;10791;53.108;18.326;2023-04-03T18:57:56;2.00;94.80
21267;DHT22;10791;53.108;18.326;2023-04-03T19:03:03;2.00;94.00
21267;DHT22;10791;53.108;18.326;2023-04-03T19:08:08;2.10;94.80
21267;DHT22;10791;53.108;18.326;2023-04-03T19:13:13;2.10;94.30
21267;DHT22;10791;53.108;18.326;2023-04-03T19:18:18;2.10;94.50
21267;DHT22;10791;53.108;18.326;2023-04-03T19:23:23;2.00;94.90
21267;DHT22;10791;53.108;18.326;2023-04-03T19:28:29;2.00;94.90
21267;DHT22;10791;53.108;18.326;2023-04-03T19:33:34;2.00;95.30
21267;DHT22;10791;53.108;18.326;2023-04-03T19:38:42;2.00;95.40
21267;DHT22;10791;53.108;18.326;2023-04-03T19:43:51;1.90;96.10
21267;DHT22;10791;53.108;18.326;2023-04-03T19:48:59;1.80;96.50
21267;DHT22;10791;53.108;18.326;2023-04-03T19:54:06;1.90;96.70
21267;DHT22;10791;53.108;18.326;2023-04-03T19:59:14;1.80;96.70
21267;DHT22;10791;53.108;18.326;2023-04-03T20:04:19;1.90;96.60
21267;DHT22;10791;53.108;18.326;2023-04-03T20:09:27;1.80;96.50
21267;DHT22;10791;53.108;18.326;2023-04-03T20:14:31;1.90;95.90
21267;DHT22;10791;53.108;18.326;2023-04-03T20:19:36;1.80;95.60
21267;DHT22;10791;53.108;18.326;2023-04-03T20:24:41;1.80;95.70
21267;DHT22;10791;53.108;18.326;2023-04-03T20:29:45;1.80;95.10
21267;DHT22;10791;53.108;18.326;2023-04-03T20:34:49;1.80;95.30
21267;DHT22;10791;53.108;18.326;2023-04-03T20:40:09;1.80;94.60
21267;DHT22;10791;53.108;18.326;2023-04-03T20:45:13;1.80;95.20
21267;DHT22;10791;53.108;18.326;2023-04-03T20:50:18;1.80;94.40
21267;DHT22;10791;53.108;18.326;2023-04-03T20:55:23;1.80;94.80
21267;DHT22;10791;53.108;18.326;2023-04-03T21:00:28;1.70;94.60
21267;DHT22;10791;53.108;18.326;2023-04-03T21:05:31;1.70;94.70
21267;DHT22;10791;53.108;18.326;2023-04-03T21:21:26;1.50;95.90
21267;DHT22;10791;53.108;18.326;2023-04-03T21:26:29;1.30;96.40
21267;DHT22;10791;53.108;18.326;2023-04-03T21:31:56;1.20;96.90
21267;DHT22;10791;53.108;18.326;2023-04-03T21:37:06;1.10;97.70
21267;DHT22;10791;53.108;18.326;2023-04-03T21:42:11;1.00;98.50
21267;DHT22;10791;53.108;18.326;2023-04-03T21:47:14;0.80;99.20
21267;DHT22;10791;53.108;18.326;2023-04-03T21:52:18;0.70;99.80
21267;DHT22;10791;53.108;18.326;2023-04-03T21:57:21;0.70;99.90
21267;DHT22;10791;53.108;18.326;2023-04-03T22:02:25;0.80;99.90
21267;DHT22;10791;53.108;18.326;2023-04-03T22:07:29;0.90;99.90
21267;DHT22;10791;53.108;18.326;2023-04-03T22:12:32;0.90;99.90
21267;DHT22;10791;53.108;18.326;2023-04-03T22:17:36;1.00;99.60
21267;DHT22;10791;53.108;18.326;2023-04-03T22:22:39;1.00;99.30
21267;DHT22;10791;53.108;18.326;2023-04-03T22:27:43;0.90;99.00
21267;DHT22;10791;53.108;18.326;2023-04-03T22:32:46;0.90;99.00
21267;DHT22;10791;53.108;18.326;2023-04-03T22:37:50;0.70;99.00
21267;DHT22;10791;53.108;18.326;2023-04-03T22:42:54;0.70;99.40
21267;DHT22;10791;53.108;18.326;2023-04-03T22:47:57;0.70;99.60
21267;DHT22;10791;53.108;18.326;2023-04-03T22:53:00;0.60;99.90
21267;DHT22;10791;53.108;18.326;2023-04-03T22:58:04;0.60;99.90
21267;DHT22;10791;53.108;18.326;2023-04-03T23:03:07;0.60;99.90
21267;DHT22;10791;53.108;18.326;2023-04-03T23:08:12;0.50;99.90
21267;DHT22;10791;53.108;18.326;2023-04-03T23:13:16;0.50;99.90
21267;DHT22;10791;53.108;18.326;2023-04-03T23:18:20;0.50;99.90
21267;DHT22;10791;53.108;18.326;2023-04-03T23:23:24;0.50;99.90
21267;DHT22;10791;53.108;18.326;2023-04-03T23:28:28;0.50;99.90
21267;DHT22;10791;53.108;18.326;2023-04-03T23:33:32;0.50;99.90
21267;DHT22;10791;53.108;18.326;2023-04-03T23:38:36;0.60;99.90
21267;DHT22;10791;53.108;18.326;2023-04-03T23:43:40;0.50;99.90
21267;DHT22;10791;53.108;18.326;2023-04-03T23:48:44;0.50;99.90
21267;DHT22;10791;53.108;18.326;2023-04-03T23:53:47;0.50;99.90
21267;DHT22;10791;53.108;18.326;2023-04-03T23:58:51;0.50;99.90
